createdAt,value
2019-04-27T00:02:23.039Z,21.20
2019-04-27T00:04:48.678Z,21.19
2019-04-27T00:07:17.026Z,21.20
2019-04-27T00:09:49.961Z,21.16
2019-04-27T00:12:08.020Z,21.17
2019-04-27T00:14:34.351Z,21.14
2019-04-27T00:17:00.664Z,21.12
2019-04-27T00:19:27.353Z,21.12
2019-04-27T00:21:53.321Z,21.08
2019-04-27T00:27:03.681Z,21.06
2019-04-27T00:29:29.985Z,21.06
2019-04-27T00:31:56.348Z,21.05
2019-04-27T00:34:23.627Z,21.02
2019-04-27T00:36:48.980Z,21.00
2019-04-27T00:39:15.296Z,20.99
2019-04-27T00:41:43.007Z,20.97
2019-04-27T00:44:07.938Z,20.94
2019-04-27T00:46:34.242Z,20.93
2019-04-27T00:49:00.580Z,20.92
2019-04-27T00:51:26.885Z,20.90
2019-04-27T00:53:54.972Z,20.89
2019-04-27T00:56:19.620Z,20.87
2019-04-27T00:58:46.001Z,20.87
2019-04-27T01:01:12.694Z,20.87
2019-04-27T01:03:38.616Z,20.84
2019-04-27T01:06:04.950Z,20.83
2019-04-27T01:08:31.273Z,20.82
2019-04-27T01:10:57.610Z,20.81
2019-04-27T01:13:23.946Z,20.78
2019-04-27T01:15:50.278Z,20.78
2019-04-27T01:18:16.611Z,20.75
2019-04-27T01:20:42.942Z,20.73
2019-04-27T01:23:10.704Z,20.72
2019-04-27T01:25:35.574Z,20.71
2019-04-27T01:28:01.890Z,20.67
2019-04-27T01:30:28.926Z,20.64
2019-04-27T01:32:54.530Z,20.64
2019-04-27T01:35:20.864Z,20.60
2019-04-27T01:37:48.684Z,20.58
2019-04-27T01:40:13.485Z,20.57
2019-04-27T01:42:39.821Z,20.56
2019-04-27T01:45:06.128Z,20.54
2019-04-27T01:47:32.485Z,20.53
2019-04-27T01:49:58.816Z,20.52
2019-04-27T01:52:25.124Z,20.51
2019-04-27T01:54:51.450Z,20.51
2019-04-27T01:57:19.338Z,20.50
2019-04-27T01:59:44.068Z,20.48
2019-04-27T02:02:10.609Z,20.48
2019-04-27T02:04:36.718Z,20.45
2019-04-27T02:07:03.048Z,20.43
2019-04-27T02:09:29.357Z,20.42
2019-04-27T02:11:55.694Z,20.38
2019-04-27T02:14:22.004Z,20.38
2019-04-27T02:16:49.236Z,20.36
2019-04-27T02:19:14.661Z,20.34
2019-04-27T02:21:40.969Z,20.32
2019-04-27T02:24:07.296Z,20.29
2019-04-27T02:26:33.648Z,20.30
2019-04-27T02:28:59.958Z,20.30
2019-04-27T02:31:26.311Z,20.29
2019-04-27T02:33:52.623Z,20.26
2019-04-27T02:36:20.212Z,20.26
2019-04-27T02:38:45.282Z,20.25
2019-04-27T02:41:11.653Z,20.23
2019-04-27T02:43:39.950Z,20.22
2019-04-27T02:46:04.318Z,20.19
2019-04-27T02:48:30.656Z,20.18
2019-04-27T02:50:56.963Z,20.17
2019-04-27T02:53:23.307Z,20.14
2019-04-27T02:55:50.032Z,20.12
2019-04-27T02:58:15.934Z,20.09
2019-04-27T03:00:42.268Z,20.05
2019-04-27T03:03:10.294Z,20.07
2019-04-27T03:05:34.906Z,20.05
2019-04-27T03:08:01.215Z,20.03
2019-04-27T03:10:29.647Z,20.01
2019-04-27T03:12:53.896Z,20.01
2019-04-27T03:15:23.548Z,19.99
2019-04-27T03:17:46.539Z,19.99
2019-04-27T03:20:12.849Z,19.98
2019-04-27T03:22:39.847Z,19.98
2019-04-27T03:25:05.498Z,19.97
2019-04-27T03:27:31.830Z,19.95
2019-04-27T03:29:59.763Z,19.94
2019-04-27T03:32:24.473Z,19.94
2019-04-27T03:34:52.369Z,19.94
2019-04-27T03:37:17.106Z,19.90
2019-04-27T03:39:43.430Z,19.92
2019-04-27T03:42:10.491Z,19.91
2019-04-27T03:44:36.065Z,19.93
2019-04-27T03:47:02.395Z,19.92
2019-04-27T03:49:37.471Z,19.93
2019-04-27T03:51:55.038Z,19.94
2019-04-27T03:54:22.194Z,19.95
2019-04-27T03:56:47.717Z,19.97
2019-04-27T03:59:14.038Z,19.96
2019-04-27T04:01:40.344Z,19.97
2019-04-27T04:04:06.694Z,19.98
2019-04-27T04:06:32.997Z,19.99
2019-04-27T04:09:00.197Z,20.01
2019-04-27T04:11:25.644Z,20.04
2019-04-27T04:13:52.002Z,20.06
2019-04-27T04:16:20.322Z,20.09
2019-04-27T04:18:44.610Z,20.12
2019-04-27T04:21:10.944Z,20.16
2019-04-27T04:23:37.262Z,20.18
2019-04-27T04:26:03.626Z,20.21
2019-04-27T04:28:29.950Z,20.24
2019-04-27T04:30:56.285Z,20.29
2019-04-27T04:33:22.594Z,20.32
2019-04-27T04:35:49.746Z,20.34
2019-04-27T04:38:15.271Z,20.35
2019-04-27T04:40:41.563Z,20.38
2019-04-27T04:43:10.535Z,20.40
2019-04-27T04:45:34.205Z,20.43
2019-04-27T04:48:00.529Z,20.46
2019-04-27T04:50:26.833Z,20.47
2019-04-27T04:52:53.163Z,20.47
2019-04-27T04:55:20.370Z,20.48
2019-04-27T04:57:45.805Z,20.47
2019-04-27T05:00:12.139Z,20.51
2019-04-27T05:02:39.697Z,20.50
2019-04-27T05:05:04.775Z,20.50
2019-04-27T05:07:31.109Z,20.51
2019-04-27T05:09:58.724Z,20.21
2019-04-27T05:12:23.772Z,19.79
2019-04-27T05:14:50.100Z,19.56
2019-04-27T05:17:16.415Z,19.44
2019-04-27T05:19:42.756Z,19.37
2019-04-27T05:22:09.392Z,19.33
2019-04-27T05:24:35.390Z,19.38
2019-04-27T05:27:01.721Z,19.49
2019-04-27T05:29:29.286Z,19.49
2019-04-27T05:31:54.354Z,19.40
2019-04-27T05:34:20.667Z,19.41
2019-04-27T05:36:48.707Z,19.54
2019-04-27T05:39:13.450Z,19.69
2019-04-27T05:41:41.761Z,19.87
2019-04-27T05:44:07.598Z,19.87
2019-04-27T05:46:35.756Z,20.03
2019-04-27T05:49:01.711Z,19.96
2019-04-27T05:51:24.938Z,19.81
2019-04-27T05:53:51.270Z,19.66
2019-04-27T05:56:19.306Z,19.72
2019-04-27T05:58:43.927Z,19.88
2019-04-27T06:01:11.264Z,19.92
2019-04-27T06:03:36.572Z,20.12
2019-04-27T06:06:02.895Z,20.22
2019-04-27T06:08:29.544Z,20.33
2019-04-27T06:10:55.527Z,20.35
2019-04-27T06:13:21.831Z,20.38
2019-04-27T06:15:49.953Z,20.32
2019-04-27T06:18:14.492Z,20.38
2019-04-27T06:20:51.198Z,20.62
2019-04-27T06:23:08.875Z,20.90
2019-04-27T06:25:33.457Z,21.01
2019-04-27T06:27:59.793Z,21.02
2019-04-27T06:30:26.100Z,21.02
2019-04-27T06:32:52.415Z,21.20
2019-04-27T06:35:18.744Z,21.39
2019-04-27T06:37:45.061Z,21.47
2019-04-27T06:40:11.387Z,21.41
2019-04-27T06:42:39.558Z,21.38
2019-04-27T06:45:04.027Z,21.40
2019-04-27T06:47:30.336Z,21.42
2019-04-27T06:49:58.558Z,21.54
2019-04-27T06:52:23.015Z,21.75
2019-04-27T06:54:49.321Z,21.87
2019-04-27T06:57:15.651Z,21.94
2019-04-27T06:59:41.958Z,22.00
2019-04-27T07:02:08.745Z,22.16
2019-04-27T07:04:34.600Z,22.39
2019-04-27T07:07:01.729Z,22.47
2019-04-27T07:09:27.254Z,22.47
2019-04-27T07:11:53.578Z,22.54
2019-04-27T07:14:19.908Z,22.68
2019-04-27T07:16:46.214Z,22.82
2019-04-27T07:19:12.521Z,22.95
2019-04-27T07:21:39.953Z,22.97
2019-04-27T07:24:05.182Z,22.93
2019-04-27T07:26:31.501Z,23.00
2019-04-27T07:28:59.419Z,22.95
2019-04-27T07:31:24.121Z,22.79
2019-04-27T07:33:50.454Z,22.79
2019-04-27T07:36:16.770Z,22.89
2019-04-27T07:38:43.091Z,22.87
2019-04-27T07:41:09.716Z,22.85
2019-04-27T07:43:35.728Z,22.90
2019-04-27T07:46:02.053Z,22.97
2019-04-27T07:48:28.616Z,23.03
2019-04-27T07:50:54.722Z,23.18
2019-04-27T07:53:21.060Z,23.32
2019-04-27T07:55:47.361Z,23.27
2019-04-27T07:58:13.685Z,23.35
2019-04-27T08:00:39.992Z,23.46
2019-04-27T08:03:06.351Z,23.63
2019-04-27T08:05:32.651Z,23.73
2019-04-27T08:08:00.185Z,23.79
2019-04-27T08:10:25.362Z,23.87
2019-04-27T08:12:51.759Z,23.81
2019-04-27T08:15:18.944Z,23.79
2019-04-27T08:17:44.385Z,23.88
2019-04-27T08:20:10.739Z,24.11
2019-04-27T08:22:38.775Z,24.28
2019-04-27T08:25:03.369Z,24.30
2019-04-27T08:27:29.672Z,24.39
2019-04-27T08:29:56.009Z,24.51
2019-04-27T08:32:22.340Z,24.68
2019-04-27T08:34:49.605Z,24.74
2019-04-27T08:37:14.971Z,24.80
2019-04-27T08:39:41.281Z,24.88
2019-04-27T08:42:09.395Z,25.00
2019-04-27T08:44:33.926Z,25.09
2019-04-27T08:47:00.256Z,25.08
2019-04-27T08:49:26.600Z,24.99
2019-04-27T08:51:59.272Z,24.95
2019-04-27T08:54:19.312Z,25.01
2019-04-27T08:56:45.559Z,25.09
2019-04-27T08:59:11.863Z,25.20
2019-04-27T09:01:39.691Z,25.30
2019-04-27T09:04:04.502Z,25.26
2019-04-27T09:06:31.189Z,25.22
2019-04-27T09:08:58.817Z,25.27
2019-04-27T09:11:23.477Z,25.42
2019-04-27T09:13:49.815Z,25.49
2019-04-27T09:16:16.144Z,25.61
2019-04-27T09:18:42.475Z,25.73
2019-04-27T09:21:10.464Z,25.86
2019-04-27T09:23:35.099Z,25.96
2019-04-27T09:26:01.406Z,26.05
2019-04-27T09:28:29.323Z,26.17
2019-04-27T09:30:54.047Z,26.22
2019-04-27T09:33:22.234Z,26.29
2019-04-27T09:35:46.717Z,26.32
2019-04-27T09:38:12.999Z,26.38
2019-04-27T09:40:39.347Z,26.43
2019-04-27T09:43:07.398Z,26.50
2019-04-27T09:45:32.009Z,26.54
2019-04-27T09:47:58.317Z,26.60
2019-04-27T09:50:28.024Z,26.63
2019-04-27T09:52:50.946Z,26.71
2019-04-27T09:55:17.267Z,26.77
2019-04-27T09:57:43.594Z,26.87
2019-04-27T10:00:09.903Z,26.98
2019-04-27T10:02:36.691Z,27.08
2019-04-27T10:05:02.615Z,27.15
2019-04-27T10:07:28.911Z,27.12
2019-04-27T10:09:55.984Z,26.97
2019-04-27T10:12:21.647Z,26.80
2019-04-27T10:14:48.015Z,26.67
2019-04-27T10:17:14.336Z,26.52
2019-04-27T10:19:40.637Z,26.41
2019-04-27T10:22:07.019Z,26.34
2019-04-27T10:24:33.281Z,26.28
2019-04-27T10:26:59.592Z,26.31
2019-04-27T10:29:26.798Z,26.36
2019-04-27T10:31:52.264Z,26.44
2019-04-27T10:34:18.597Z,26.57
2019-04-27T10:36:46.068Z,26.68
2019-04-27T10:39:13.289Z,26.77
2019-04-27T10:41:37.559Z,26.85
2019-04-27T10:44:03.893Z,26.89
2019-04-27T10:46:30.209Z,26.85
2019-04-27T10:48:56.516Z,26.73
2019-04-27T10:51:22.846Z,26.70
2019-04-27T10:53:49.180Z,26.70
2019-04-27T10:56:15.515Z,26.64
2019-04-27T10:58:41.820Z,26.55
2019-04-27T11:01:08.154Z,26.43
2019-04-27T11:03:35.676Z,26.43
2019-04-27T11:06:00.778Z,26.40
2019-04-27T11:08:27.111Z,26.37
2019-04-27T11:10:53.424Z,26.31
2019-04-27T11:13:19.846Z,26.24
2019-04-27T11:15:46.254Z,26.19
2019-04-27T11:18:12.502Z,26.18
2019-04-27T11:20:38.813Z,26.24
2019-04-27T11:23:09.416Z,26.32
2019-04-27T11:25:31.471Z,26.40
2019-04-27T11:27:57.964Z,26.48
2019-04-27T11:30:24.111Z,26.56
2019-04-27T11:32:50.453Z,26.67
2019-04-27T11:35:16.758Z,26.79
2019-04-27T11:37:43.087Z,26.88
2019-04-27T11:40:09.392Z,26.95
2019-04-27T11:42:35.721Z,26.91
2019-04-27T11:45:02.049Z,26.82
2019-04-27T11:47:28.353Z,26.66
2019-04-27T11:49:54.685Z,26.45
2019-04-27T11:52:20.991Z,26.29
2019-04-27T11:54:47.327Z,26.18
2019-04-27T11:57:13.627Z,26.04
2019-04-27T11:59:39.960Z,25.95
2019-04-27T12:02:06.270Z,25.86
2019-04-27T12:04:32.590Z,25.78
2019-04-27T12:06:58.933Z,25.71
2019-04-27T12:17:20.246Z,25.32
2019-04-27T12:19:46.585Z,25.20
2019-04-27T12:22:12.877Z,25.08
2019-04-27T12:24:39.214Z,24.90
2019-04-27T12:27:05.766Z,24.76
2019-04-27T12:29:31.845Z,24.66
2019-04-27T12:31:58.229Z,24.57
2019-04-27T12:34:25.598Z,24.41
2019-04-27T12:36:53.168Z,24.14
2019-04-27T12:39:17.199Z,23.85
2019-04-27T12:41:43.522Z,23.51
2019-04-27T12:44:09.835Z,23.12
2019-04-27T12:46:36.165Z,22.73
2019-04-27T12:49:02.497Z,22.50
2019-04-27T12:51:28.807Z,22.37
2019-04-27T12:53:55.961Z,22.30
2019-04-27T12:56:21.482Z,22.27
2019-04-27T12:58:47.796Z,22.27
2019-04-27T13:01:15.757Z,22.27
2019-04-27T13:03:40.450Z,22.26
2019-04-27T13:06:06.786Z,22.33
2019-04-27T13:08:33.141Z,22.43
2019-04-27T13:10:59.512Z,22.48
2019-04-27T13:13:26.669Z,22.53
2019-04-27T13:15:52.173Z,22.66
2019-04-27T13:18:18.505Z,22.72
2019-04-27T13:20:44.857Z,22.65
2019-04-27T13:23:11.195Z,22.61
2019-04-27T13:25:38.557Z,22.48
2019-04-27T13:28:05.568Z,22.47
2019-04-27T13:30:30.185Z,22.51
2019-04-27T13:32:56.505Z,22.62
2019-04-27T13:35:22.844Z,22.67
2019-04-27T13:37:49.154Z,22.67
2019-04-27T13:40:17.089Z,22.68
2019-04-27T13:42:41.792Z,22.61
2019-04-27T13:45:08.225Z,22.57
2019-04-27T13:47:36.617Z,22.54
2019-04-27T13:50:00.865Z,22.62
2019-04-27T13:52:29.824Z,22.69
2019-04-27T13:54:53.509Z,22.73
2019-04-27T13:57:19.837Z,22.79
2019-04-27T13:59:46.176Z,22.87
2019-04-27T14:02:13.519Z,22.87
2019-04-27T14:04:38.865Z,22.78
2019-04-27T14:07:05.175Z,22.59
2019-04-27T14:09:34.253Z,22.43
2019-04-27T14:12:00.572Z,22.37
2019-04-27T14:14:28.800Z,22.32
2019-04-27T14:16:53.274Z,22.39
2019-04-27T14:19:19.583Z,22.42
2019-04-27T14:21:45.923Z,22.47
2019-04-27T14:24:12.306Z,22.51
2019-04-27T14:26:38.707Z,22.50
2019-04-27T14:29:04.942Z,22.47
2019-04-27T14:31:31.257Z,22.46
2019-04-27T14:33:58.724Z,22.45
2019-04-27T14:36:23.897Z,22.33
2019-04-27T14:38:50.231Z,22.25
2019-04-27T14:41:16.527Z,22.15
2019-04-27T14:43:42.860Z,22.05
2019-04-27T14:46:09.178Z,22.06
2019-04-27T14:48:35.508Z,22.09
2019-04-27T14:51:01.839Z,22.01
2019-04-27T14:53:28.293Z,21.89
2019-04-27T14:55:54.467Z,21.75
2019-04-27T14:58:20.782Z,21.62
2019-04-27T15:00:47.113Z,21.53
2019-04-27T15:03:13.473Z,21.41
2019-04-27T15:05:39.785Z,21.24
2019-04-27T15:08:09.598Z,21.13
2019-04-27T15:10:34.405Z,21.07
2019-04-27T15:13:01.697Z,21.00
2019-04-27T15:15:28.334Z,20.98
2019-04-27T15:17:51.527Z,20.90
2019-04-27T15:20:17.844Z,20.83
2019-04-27T15:22:44.229Z,20.86
2019-04-27T15:25:13.649Z,20.82
2019-04-27T15:27:37.734Z,20.79
2019-04-27T15:30:08.544Z,20.77
2019-04-27T15:32:29.537Z,20.72
2019-04-27T15:34:58.814Z,20.65
2019-04-27T15:37:22.183Z,20.63
2019-04-27T15:39:50.330Z,20.57
2019-04-27T15:42:14.826Z,20.52
2019-04-27T15:44:44.143Z,20.50
2019-04-27T15:47:10.388Z,20.50
2019-04-27T15:49:33.820Z,20.55
2019-04-27T15:52:00.254Z,20.55
2019-04-27T15:54:32.031Z,20.44
2019-04-27T15:56:52.802Z,20.35
2019-04-27T15:59:19.130Z,20.31
2019-04-27T16:01:45.438Z,20.31
2019-04-27T16:04:11.750Z,20.34
2019-04-27T16:06:38.496Z,20.26
2019-04-27T16:09:04.393Z,20.31
2019-04-27T16:11:30.757Z,20.33
2019-04-27T16:13:58.746Z,20.25
2019-04-27T16:16:24.533Z,20.20
2019-04-27T16:18:49.724Z,20.13
2019-04-27T16:21:17.866Z,20.06
2019-04-27T16:23:43.199Z,20.05
2019-04-27T16:26:10.951Z,20.07
2019-04-27T16:28:35.148Z,20.08
2019-04-27T16:31:01.455Z,20.06
2019-04-27T16:33:28.802Z,20.06
2019-04-27T16:35:59.499Z,20.04
2019-04-27T16:38:20.473Z,20.02
2019-04-27T16:40:46.792Z,20.00
2019-04-27T16:43:13.154Z,19.94
2019-04-27T16:45:39.498Z,19.84
2019-04-27T16:48:05.816Z,19.80
2019-04-27T16:50:32.171Z,19.77
2019-04-27T16:53:00.959Z,19.71
2019-04-27T16:55:28.023Z,19.67
2019-04-27T16:57:51.162Z,19.62
2019-04-27T17:00:18.271Z,19.64
2019-04-27T17:02:43.786Z,19.74
2019-04-27T17:05:10.222Z,19.75
2019-04-27T17:07:37.750Z,19.54
2019-04-27T17:10:02.906Z,19.33
2019-04-27T17:12:34.344Z,19.29
2019-04-27T17:14:55.572Z,19.17
2019-04-27T17:17:21.859Z,19.07
2019-04-27T17:19:51.575Z,19.01
2019-04-27T17:22:16.201Z,18.97
2019-04-27T17:24:46.385Z,18.96
2019-04-27T17:27:11.092Z,18.92
2019-04-27T17:29:33.493Z,18.93
2019-04-27T17:32:00.165Z,18.93
2019-04-27T17:34:26.417Z,18.81
2019-04-27T17:36:54.695Z,18.79
2019-04-27T17:39:19.305Z,18.83
2019-04-27T17:41:49.126Z,18.86
2019-04-27T17:44:12.830Z,18.74
2019-04-27T17:46:38.551Z,18.76
2019-04-27T17:49:04.108Z,18.77
2019-04-27T17:51:30.950Z,18.74
2019-04-27T17:53:58.492Z,18.69
2019-04-27T17:56:33.284Z,18.65
2019-04-27T17:58:52.141Z,18.76
2019-04-27T18:01:19.114Z,18.83
2019-04-27T18:03:42.045Z,18.93
2019-04-27T18:06:08.719Z,18.92
2019-04-27T18:08:34.711Z,18.90
2019-04-27T18:11:03.234Z,18.90
2019-04-27T18:13:28.844Z,18.93
2019-04-27T18:15:54.290Z,18.96
2019-04-27T18:18:22.841Z,19.00
2019-04-27T18:20:47.734Z,19.02
2019-04-27T18:23:15.080Z,19.04
2019-04-27T18:25:40.452Z,19.08
2019-04-27T18:28:08.051Z,19.11
2019-04-27T18:30:33.744Z,19.10
2019-04-27T18:33:02.001Z,19.07
2019-04-27T18:35:26.369Z,18.94
2019-04-27T18:37:53.584Z,18.92
2019-04-27T18:40:18.184Z,18.93
2019-04-27T18:42:43.255Z,18.92
2019-04-27T18:45:09.590Z,18.93
2019-04-27T18:47:38.566Z,18.96
2019-04-27T18:50:10.880Z,18.95
2019-04-27T18:52:28.576Z,18.94
2019-04-27T18:54:54.938Z,18.90
2019-04-27T18:57:21.241Z,18.94
2019-04-27T18:59:48.258Z,18.97
2019-04-27T19:02:13.904Z,18.92
2019-04-27T19:04:40.214Z,18.92
2019-04-27T19:07:06.549Z,18.91
2019-04-27T19:09:32.856Z,18.75
2019-04-27T19:11:59.194Z,18.78
2019-04-27T19:14:25.506Z,18.68
2019-04-27T19:16:51.841Z,18.63
2019-04-27T19:19:18.946Z,18.58
2019-04-27T19:21:44.483Z,18.54
2019-04-27T19:24:10.814Z,18.57
2019-04-27T19:26:38.270Z,18.48
2019-04-27T19:29:03.459Z,18.48
2019-04-27T19:31:29.867Z,18.55
2019-04-27T19:33:56.192Z,18.55
2019-04-27T19:36:22.525Z,18.57
2019-04-27T19:38:49.743Z,18.53
2019-04-27T19:41:15.157Z,18.58
2019-04-27T19:43:41.521Z,18.43
2019-04-27T19:46:07.838Z,18.42
2019-04-27T19:48:34.172Z,18.48
2019-04-27T19:51:00.487Z,18.48
2019-04-27T19:53:26.821Z,18.51
2019-04-27T19:55:53.131Z,18.46
2019-04-27T19:58:19.866Z,18.46
2019-04-27T20:00:45.777Z,18.41
2019-04-27T20:03:12.091Z,18.40
2019-04-27T20:05:38.871Z,18.41
2019-04-27T20:08:04.739Z,18.42
2019-04-27T20:10:34.173Z,18.37
2019-04-27T20:12:57.388Z,18.35
2019-04-27T20:15:23.761Z,18.31
2019-04-27T20:17:50.801Z,18.33
2019-04-27T20:20:16.397Z,18.29
2019-04-27T20:22:42.730Z,18.27
2019-04-27T20:25:09.058Z,18.24
2019-04-27T20:27:46.273Z,18.26
2019-04-27T20:30:03.045Z,18.28
2019-04-27T20:32:28.030Z,18.22
2019-04-27T20:34:54.339Z,18.21
2019-04-27T20:37:21.128Z,18.13
2019-04-27T20:39:47.051Z,18.14
2019-04-27T20:42:13.357Z,18.19
2019-04-27T20:44:41.243Z,18.14
2019-04-27T20:47:06.013Z,18.10
2019-04-27T20:49:32.327Z,18.01
2019-04-27T20:51:58.670Z,17.96
2019-04-27T20:54:24.978Z,17.87
2019-04-27T20:56:53.511Z,17.84
2019-04-27T20:59:17.637Z,17.78
2019-04-27T21:01:43.962Z,17.71
2019-04-27T21:04:10.984Z,17.62
2019-04-27T21:06:36.602Z,17.62
2019-04-27T21:09:03.147Z,17.62
2019-04-27T21:11:30.772Z,17.63
2019-04-27T21:13:57.052Z,17.63
2019-04-27T21:16:21.914Z,17.63
2019-04-27T21:18:48.259Z,17.62
2019-04-27T21:21:14.592Z,17.64
2019-04-27T21:23:41.463Z,17.57
2019-04-27T21:26:07.236Z,17.55
2019-04-27T21:28:33.547Z,17.55
2019-04-27T21:30:59.887Z,17.59
2019-04-27T21:33:26.207Z,17.62
2019-04-27T21:35:52.556Z,17.63
2019-04-27T21:38:18.881Z,17.60
2019-04-27T21:40:45.186Z,17.60
2019-04-27T21:43:11.525Z,17.56
2019-04-27T21:45:37.827Z,17.57
2019-04-27T21:48:04.164Z,17.55
2019-04-27T21:50:31.451Z,17.49
2019-04-27T21:52:56.833Z,17.55
2019-04-27T21:55:23.167Z,17.57
2019-04-27T21:57:51.200Z,17.52
2019-04-27T22:00:15.813Z,17.46
2019-04-27T22:02:42.155Z,17.33
2019-04-27T22:05:08.468Z,17.23
2019-04-27T22:07:37.427Z,17.17
2019-04-27T22:10:02.023Z,17.11
2019-04-27T22:12:27.451Z,17.09
2019-04-27T22:14:53.779Z,17.10
2019-04-27T22:17:20.092Z,17.08
2019-04-27T22:19:46.430Z,17.09
2019-04-27T22:22:12.751Z,16.94
2019-04-27T22:24:39.080Z,16.86
2019-04-27T22:27:05.388Z,16.73
2019-04-27T22:29:32.219Z,16.70
2019-04-27T22:31:58.032Z,16.64
2019-04-27T22:34:24.346Z,16.62
2019-04-27T22:36:50.680Z,16.61
2019-04-27T22:39:17.019Z,16.63
2019-04-27T22:41:43.377Z,16.55
2019-04-27T22:44:11.403Z,16.62
2019-04-27T22:46:36.013Z,16.66
2019-04-27T22:49:02.358Z,16.66
2019-04-27T22:51:28.668Z,16.64
2019-04-27T22:53:54.982Z,16.57
2019-04-27T22:56:22.237Z,16.48
2019-04-27T22:58:59.948Z,16.49
2019-04-27T23:01:13.968Z,16.48
2019-04-27T23:03:41.417Z,16.32
2019-04-27T23:06:06.615Z,16.38
2019-04-27T23:08:32.930Z,16.40
2019-04-27T23:11:00.573Z,16.48
2019-04-27T23:13:25.629Z,16.57
2019-04-27T23:15:51.962Z,16.57
2019-04-27T23:18:18.396Z,16.46
2019-04-27T23:20:44.721Z,16.50
2019-04-27T23:23:11.421Z,16.47
2019-04-27T23:25:37.407Z,16.42
2019-04-27T23:28:03.717Z,16.39
2019-04-27T23:30:31.223Z,16.45
2019-04-27T23:32:56.388Z,16.39
2019-04-27T23:35:22.704Z,16.28
2019-04-27T23:37:50.789Z,16.15
2019-04-27T23:40:15.354Z,16.19
2019-04-27T23:42:41.804Z,16.14
2019-04-27T23:45:08.011Z,16.07
2019-04-27T23:47:34.380Z,16.03
2019-04-27T23:50:00.927Z,16.14
2019-04-27T23:52:27.008Z,16.16
2019-04-27T23:54:53.343Z,16.11
2019-04-27T23:57:19.656Z,16.12
2019-04-27T23:59:46.035Z,16.12
